Time;durP1;ratioP1;P1;durP2;ratioP2;P2;SDS_P1;SDS_P2;PMS_P1;PMS_P2;Temp;Humidity;BMP_temperature;BMP_pressure;BME280_temperature;BME280_humidity;BME280_pressure;Samples;Min_cycle;Max_cycle;Signal;HPM_P1;HPM_P2
2024/03/28 00:02:20;;;;;;;3.78;1.40;;;;;;;10.98;62.62;98504.59;5250124;28;20121;-77
2024/03/28 00:04:52;;;;;;;3.17;1.70;;;;;;;10.98;63.38;98504.59;5246764;28;20244;-77
2024/03/28 00:07:24;;;;;;;3.00;1.50;;;;;;;10.96;62.16;98498.75;5247465;28;20378;-77
2024/03/28 00:09:56;;;;;;;2.25;1.58;;;;;;;10.99;62.65;98492.34;5247090;28;20037;-77
2024/03/28 00:12:28;;;;;;;2.42;1.15;;;;;;;10.88;62.32;98470.09;5246635;28;20033;-77
2024/03/28 00:14:59;;;;;;;2.45;1.27;;;;;;;10.99;62.17;98492.34;5247209;28;20071;-77
2024/03/28 00:17:32;;;;;;;3.22;1.45;;;;;;;11.00;62.01;98483.47;5249587;28;20029;-77
2024/03/28 00:20:05;;;;;;;2.33;1.30;;;;;;;11.03;62.42;98477.88;5248574;28;20442;-78
2024/03/28 00:22:37;;;;;;;3.90;1.23;;;;;;;10.94;62.77;98458.84;5247122;28;20021;-77
2024/03/28 00:25:09;;;;;;;2.15;1.35;;;;;;;11.00;62.02;98473.00;5248035;28;20056;-76
2024/03/28 00:27:41;;;;;;;1.88;1.38;;;;;;;10.96;62.95;98468.13;5249174;28;20490;-77
2024/03/28 00:30:13;;;;;;;2.33;1.30;;;;;;;10.92;62.88;98460.84;5245344;28;20300;-77
2024/03/28 00:32:48;;;;;;;3.25;1.63;;;;;;;11.00;62.91;98454.66;5246529;28;20418;-78
2024/03/28 00:35:20;;;;;;;2.85;1.30;;;;;;;10.89;63.14;98448.94;5244323;28;20044;-78
2024/03/28 00:37:52;;;;;;;2.10;1.13;;;;;;;10.89;62.67;98454.16;5244535;28;20044;-79
2024/03/28 00:40:24;;;;;;;1.88;1.23;;;;;;;10.88;63.40;98442.09;5246628;28;20323;-78
2024/03/28 00:42:55;;;;;;;2.13;1.40;;;;;;;10.78;63.08;98425.06;5246105;28;20035;-77
2024/03/28 00:45:27;;;;;;;2.10;1.13;;;;;;;10.84;63.58;98440.84;5244259;28;20041;-78
2024/03/28 00:47:59;;;;;;;2.45;1.27;;;;;;;10.81;63.33;98430.75;5244063;28;20050;-77
2024/03/28 00:50:32;;;;;;;3.20;1.52;;;;;;;10.77;63.74;98420.84;5244959;28;20537;-77
2024/03/28 00:53:04;;;;;;;1.90;1.40;;;;;;;10.79;62.77;98419.63;5244469;28;20044;-78
2024/03/28 00:55:36;;;;;;;2.95;1.63;;;;;;;10.71;63.88;98412.72;5243148;28;20033;-78
2024/03/28 00:58:08;;;;;;;2.95;1.42;;;;;;;10.67;63.72;98405.47;5245335;28;20373;-78
2024/03/28 01:00:41;;;;;;;2.45;1.40;;;;;;;10.62;64.74;98405.22;5245858;28;20033;-78
2024/03/28 01:03:14;;;;;;;2.40;1.27;;;;;;;10.63;64.12;98405.03;5243054;28;20028;-79
2024/03/28 01:05:46;;;;;;;4.72;1.48;;;;;;;10.56;64.93;98401.53;5243761;28;20050;-77
2024/03/28 01:08:17;;;;;;;2.40;1.30;;;;;;;10.53;64.87;98395.88;5242804;28;20029;-77
2024/03/28 01:10:49;;;;;;;2.08;1.38;;;;;;;10.54;64.65;98394.91;5245119;28;20554;-78
2024/03/28 01:13:21;;;;;;;3.88;1.70;;;;;;;10.47;64.84;98389.59;5245883;28;20401;-78
2024/03/28 01:15:53;;;;;;;3.58;1.50;;;;;;;10.39;65.06;98377.47;5224995;28;20056;-77
2024/03/28 01:18:25;;;;;;;2.72;1.67;;;;;;;10.43;65.64;98389.16;5244548;28;20036;-77
2024/03/28 01:21:03;;;;;;;4.15;1.73;;;;;;;10.54;65.81;98377.38;5245230;28;20036;-78
2024/03/28 01:23:36;;;;;;;3.03;1.30;;;;;;;10.40;66.25;98366.00;5243434;28;20025;-77
2024/03/28 01:26:07;;;;;;;2.10;1.40;;;;;;;10.42;65.23;98371.84;5244396;28;20040;-77
2024/03/28 01:28:39;;;;;;;4.95;1.80;;;;;;;10.37;64.83;98374.22;5244092;28;20032;-77
2024/03/28 01:31:11;;;;;;;3.15;1.67;;;;;;;10.32;64.98;98362.72;5245388;28;20037;-78
2024/03/28 01:33:43;;;;;;;3.28;1.90;;;;;;;10.29;65.40;98369.13;5244033;28;20037;-77
2024/03/28 01:36:15;;;;;;;3.35;2.13;;;;;;;10.31;65.80;98361.91;5241414;28;20055;-77
2024/03/28 01:38:47;;;;;;;4.68;2.28;;;;;;;10.21;65.90;98358.75;5244607;28;20033;-78
2024/03/28 01:41:19;;;;;;;3.78;2.35;;;;;;;10.24;65.71;98367.03;5243935;28;20033;-78
2024/03/28 01:43:51;;;;;;;3.65;1.90;;;;;;;10.20;65.71;98368.41;5244182;28;20045;-78
2024/03/28 01:46:23;;;;;;;3.03;1.50;;;;;;;10.17;66.59;98373.22;5244062;28;20044;-78
2024/03/28 01:48:55;;;;;;;2.75;1.52;;;;;;;10.17;66.33;98373.22;5241343;28;20039;-78
2024/03/28 01:51:27;;;;;;;2.33;1.40;;;;;;;10.14;67.63;98370.97;5243229;28;20037;-78
2024/03/28 01:54:00;;;;;;;3.25;1.65;;;;;;;10.08;67.14;98364.69;5243674;28;20167;-78
2024/03/28 01:56:34;;;;;;;2.92;1.63;;;;;;;10.14;67.10;98366.53;5243729;28;20494;-78
2024/03/28 01:59:06;;;;;;;3.00;1.42;;;;;;;10.03;68.61;98367.03;5244271;28;20032;-78
2024/03/28 02:01:39;;;;;;;4.30;1.90;;;;;;;10.05;67.29;98364.25;5242209;28;20032;-78
2024/03/28 02:04:11;;;;;;;2.90;1.75;;;;;;;10.00;68.23;98367.44;5226299;28;20292;-77
2024/03/28 02:06:43;;;;;;;2.97;1.60;;;;;;;9.85;69.24;98346.59;5244307;28;20429;-78
2024/03/28 02:09:15;;;;;;;2.63;1.55;;;;;;;9.86;69.16;98345.56;5242250;28;20033;-77
2024/03/28 02:11:47;;;;;;;2.47;1.80;;;;;;;9.86;69.24;98360.47;5244115;28;20033;-78
2024/03/28 02:14:19;;;;;;;2.60;1.90;;;;;;;9.73;69.75;98340.19;5242526;28;20048;-78
2024/03/28 02:16:51;;;;;;;3.00;1.55;;;;;;;9.79;69.95;98352.53;5243329;28;20037;-77
2024/03/28 02:19:23;;;;;;;4.43;1.92;;;;;;;9.73;70.26;98341.00;5243411;28;20389;-77
2024/03/28 02:21:55;;;;;;;3.13;1.83;;;;;;;9.75;70.59;98339.03;5243704;28;20062;-79
2024/03/28 02:24:28;;;;;;;2.75;1.63;;;;;;;9.70;70.27;98324.91;5243726;28;20315;-78
2024/03/28 02:27:00;;;;;;;3.28;1.83;;;;;;;9.71;70.51;98339.59;5243466;28;20048;-78
2024/03/28 02:29:32;;;;;;;4.13;2.25;;;;;;;9.72;71.04;98339.41;5242269;28;20467;-77
2024/03/28 02:32:04;;;;;;;3.67;1.80;;;;;;;9.73;70.61;98330.53;5242278;28;20058;-78
2024/03/28 02:34:36;;;;;;;2.60;1.90;;;;;;;9.78;71.44;98332.63;5243485;28;20647;-78
2024/03/28 02:37:10;;;;;;;2.80;1.73;;;;;;;9.86;71.82;98329.06;5241208;28;20033;-77
2024/03/28 02:39:42;;;;;;;2.38;1.63;;;;;;;9.83;70.08;98322.41;5239025;28;20036;-77
2024/03/28 02:42:14;;;;;;;2.15;1.70;;;;;;;9.81;70.67;98320.97;5242902;28;20063;-78
2024/03/28 02:44:46;;;;;;;2.47;1.73;;;;;;;9.84;69.89;98310.13;5237000;28;20045;-77
2024/03/28 02:47:18;;;;;;;4.68;1.65;;;;;;;9.78;70.68;98316.94;5243263;28;20041;-78
2024/03/28 02:49:50;;;;;;;3.17;1.90;;;;;;;9.85;70.20;98311.75;5240690;28;20033;-78
2024/03/28 02:52:22;;;;;;;3.10;1.50;;;;;;;9.79;70.74;98309.91;5242428;28;20036;-77
2024/03/28 02:54:54;;;;;;;1.95;1.30;;;;;;;9.80;71.13;98299.25;5241471;28;20045;-77
2024/03/28 02:57:26;;;;;;;3.03;1.80;;;;;;;9.78;70.99;98285.56;5242390;28;20044;-77
2024/03/28 02:59:58;;;;;;;2.20;1.50;;;;;;;9.81;70.52;98264.28;5242681;28;20506;-77
2024/03/28 03:02:30;;;;;;;3.85;1.60;;;;;;;9.82;71.84;98267.69;5244603;28;20037;-77
2024/03/28 03:05:02;;;;;;;3.17;1.88;;;;;;;9.81;70.68;98264.28;5241469;28;20029;-77
2024/03/28 03:07:33;;;;;;;2.83;1.60;;;;;;;9.72;70.70;98265.38;5243177;28;20722;-77
2024/03/28 03:10:06;;;;;;;2.90;1.50;;;;;;;9.71;71.38;98269.00;5242063;28;20033;-77
2024/03/28 03:12:38;;;;;;;2.65;1.48;;;;;;;9.75;71.37;98260.59;5242534;28;20036;-77
2024/03/28 03:15:10;;;;;;;2.55;1.40;;;;;;;9.70;71.83;98259.56;5242254;28;20391;-78
2024/03/28 03:17:42;;;;;;;4.60;2.17;;;;;;;9.74;71.17;98247.72;5242222;28;20268;-78
2024/03/28 03:20:14;;;;;;;2.38;1.50;;;;;;;9.76;71.45;98230.03;5242208;28;20040;-77
2024/03/28 03:22:48;;;;;;;2.00;1.48;;;;;;;9.78;71.46;98229.84;5242612;28;20032;-78
2024/03/28 03:25:28;;;;;;;2.47;1.60;;;;;;;9.73;71.66;98212.09;5243629;28;20036;-78
2024/03/28 03:36:31;;;;;;;2.25;1.73;;;;;;;9.82;70.92;98220.63;5246817;28;20436;-78
2024/03/28 03:39:03;;;;;;;2.00;1.25;;;;;;;9.74;71.55;98221.56;5246150;28;20036;-77
2024/03/28 03:41:35;;;;;;;4.43;1.50;;;;;;;9.81;71.59;98219.00;5244937;28;20070;-78
2024/03/28 03:44:07;;;;;;;5.35;1.80;;;;;;;9.74;72.12;98205.88;5245988;28;20047;-77
2024/03/28 03:46:40;;;;;;;4.55;1.83;;;;;;;9.78;72.01;98199.28;5246214;28;20048;-78
2024/03/28 03:49:12;;;;;;;3.80;1.60;;;;;;;9.77;71.68;98199.44;5246206;28;20885;-77
2024/03/28 03:51:44;;;;;;;2.80;1.55;;;;;;;9.72;72.22;98203.44;5247529;28;20059;-77
2024/03/28 03:54:15;;;;;;;2.85;1.50;;;;;;;9.75;71.89;98205.69;5245328;28;20034;-78
2024/03/28 03:56:47;;;;;;;2.42;1.52;;;;;;;9.73;71.44;98199.81;5245280;28;20657;-76
2024/03/28 03:59:19;;;;;;;2.72;2.00;;;;;;;9.69;72.28;98209.03;5245603;28;20029;-78
2024/03/28 04:01:51;;;;;;;2.85;1.67;;;;;;;9.68;72.33;98209.25;5247344;28;20036;-77
2024/03/28 04:04:23;;;;;;;2.35;1.60;;;;;;;9.62;72.64;98207.38;5245474;28;20032;-77
2024/03/28 04:06:56;;;;;;;2.63;1.80;;;;;;;9.53;72.75;98195.44;5246283;28;20041;-77
2024/03/28 04:09:28;;;;;;;2.95;1.80;;;;;;;9.65;72.45;98201.78;5242989;28;20196;-77
2024/03/28 04:11:59;;;;;;;2.65;1.65;;;;;;;9.63;73.12;98193.31;5245955;28;20719;-77
2024/03/28 04:14:31;;;;;;;2.88;1.73;;;;;;;9.64;72.73;98185.28;5245389;28;20098;-77
2024/03/28 04:17:03;;;;;;;2.38;1.55;;;;;;;9.57;73.25;98171.34;5245550;28;20051;-77
2024/03/28 04:19:35;;;;;;;3.00;1.73;;;;;;;9.60;73.07;98168.38;5245795;28;20036;-78
2024/03/28 04:22:07;;;;;;;2.30;1.77;;;;;;;9.63;72.56;98167.19;5244849;28;20043;-78
2024/03/28 04:24:39;;;;;;;4.30;2.00;;;;;;;9.57;73.28;98162.72;5244908;28;20699;-77
2024/03/28 04:27:11;;;;;;;4.43;1.90;;;;;;;9.58;73.58;98162.50;5246246;28;20492;-77
2024/03/28 04:29:43;;;;;;;3.00;1.70;;;;;;;9.60;73.41;98178.00;5245859;28;20509;-77
2024/03/28 04:32:14;;;;;;;2.63;1.85;;;;;;;9.55;73.67;98167.34;5245273;28;20025;-77
2024/03/28 04:34:47;;;;;;;2.25;1.70;;;;;;;9.57;74.51;98165.31;5246126;28;20033;-77
2024/03/28 04:37:19;;;;;;;2.47;1.63;;;;;;;9.62;74.14;98170.78;5244994;28;20044;-77
2024/03/28 04:39:51;;;;;;;2.72;1.65;;;;;;;9.52;74.51;98141.56;5245600;28;20409;-78
2024/03/28 04:42:23;;;;;;;3.15;1.95;;;;;;;9.60;73.42;98164.94;5247116;28;20033;-77
2024/03/28 04:44:55;;;;;;;3.78;1.40;;;;;;;9.57;74.24;98155.66;5245153;28;20033;-79
2024/03/28 04:47:27;;;;;;;3.37;2.00;;;;;;;9.59;73.88;98143.22;5244968;28;20033;-77
2024/03/28 04:49:59;;;;;;;2.20;1.55;;;;;;;9.47;73.96;98150.78;5243513;28;20772;-78
2024/03/28 04:52:31;;;;;;;3.47;1.70;;;;;;;9.50;74.64;98158.22;5243996;28;20029;-78
2024/03/28 04:55:03;;;;;;;4.22;1.70;;;;;;;9.54;74.08;98153.44;5241941;28;20040;-77
2024/03/28 04:57:35;;;;;;;3.13;1.75;;;;;;;9.50;74.39;98153.00;5243304;28;20044;-77
2024/03/28 05:00:08;;;;;;;7.28;1.55;;;;;;;9.49;74.40;98143.53;5243777;28;20039;-77
2024/03/28 05:02:40;;;;;;;2.17;1.58;;;;;;;9.47;74.61;98140.34;5242467;28;20033;-78
2024/03/28 05:05:12;;;;;;;2.80;1.75;;;;;;;9.53;73.87;98143.16;5244205;28;20036;-77
2024/03/28 05:07:44;;;;;;;2.72;1.65;;;;;;;9.52;73.70;98136.34;5244709;28;20087;-77
2024/03/28 05:10:16;;;;;;;2.00;1.55;;;;;;;9.46;74.26;98136.06;5245151;28;20047;-77
2024/03/28 05:12:49;;;;;;;5.80;2.15;;;;;;;9.45;74.45;98139.69;5244168;28;20049;-77
2024/03/28 05:15:21;;;;;;;3.70;1.80;;;;;;;9.47;74.51;98145.56;5243681;28;20025;-77
2024/03/28 05:17:53;;;;;;;4.20;1.73;;;;;;;9.43;75.23;98167.84;5242420;28;21137;-78
2024/03/28 05:20:26;;;;;;;2.15;1.52;;;;;;;9.40;75.54;98175.25;5244059;28;20035;-77
2024/03/28 05:22:58;;;;;;;3.22;1.90;;;;;;;9.32;75.37;98173.56;5245640;28;20044;-78
2024/03/28 05:25:30;;;;;;;3.83;1.80;;;;;;;9.30;76.64;98166.91;5245123;28;20025;-77
2024/03/28 05:28:01;;;;;;;3.55;1.80;;;;;;;9.33;76.00;98183.03;5243826;28;20029;-77
2024/03/28 05:30:33;;;;;;;2.28;1.83;;;;;;;9.31;76.65;98182.38;5244225;28;20442;-77
2024/03/28 05:33:05;;;;;;;4.25;2.10;;;;;;;9.23;76.65;98177.28;5244417;28;20029;-77
2024/03/28 05:35:38;;;;;;;4.68;2.20;;;;;;;9.29;76.88;98184.38;5244874;28;20037;-77
2024/03/28 05:38:10;;;;;;;5.20;2.30;;;;;;;9.34;76.18;98187.25;5243085;28;20028;-78
2024/03/28 05:40:41;;;;;;;3.67;2.08;;;;;;;9.33;76.13;98183.03;5244205;28;20291;-78
2024/03/28 05:43:13;;;;;;;3.40;1.88;;;;;;;9.35;76.30;98193.28;5245501;28;20375;-79
2024/03/28 05:45:45;;;;;;;7.38;2.20;;;;;;;9.26;76.97;98171.69;5244326;28;20082;-78
2024/03/28 05:48:17;;;;;;;4.88;2.30;;;;;;;9.36;75.91;98187.88;5244458;28;20062;-77
2024/03/28 05:50:49;;;;;;;2.83;1.65;;;;;;;9.38;76.65;98175.41;5245544;28;20043;-78
2024/03/28 05:53:21;;;;;;;3.25;2.10;;;;;;;9.51;75.72;98182.56;5243473;28;20070;-79
2024/03/28 05:55:53;;;;;;;3.60;1.70;;;;;;;9.60;75.65;98183.25;5243971;28;20047;-80
2024/03/28 05:58:25;;;;;;;4.28;2.17;;;;;;;9.65;75.19;98178.25;5242937;28;20150;-79
2024/03/28 06:00:56;;;;;;;4.35;2.40;;;;;;;9.72;74.35;98181.72;5244599;28;20028;-77
2024/03/28 06:03:28;;;;;;;3.90;1.85;;;;;;;9.80;74.49;98181.56;5245182;28;20033;-78
2024/03/28 06:06:00;;;;;;;3.33;1.77;;;;;;;9.87;73.49;98185.06;5244592;28;20041;-78
2024/03/28 06:08:33;;;;;;;4.40;2.05;;;;;;;9.87;73.67;98173.78;5243021;28;20264;-77
2024/03/28 06:11:05;;;;;;;2.22;1.90;;;;;;;9.90;72.44;98171.59;5243564;28;20033;-77
2024/03/28 06:13:37;;;;;;;3.35;2.05;;;;;;;9.86;72.45;98159.09;5245315;28;20033;-77
2024/03/28 06:16:09;;;;;;;3.67;2.00;;;;;;;9.95;72.82;98155.31;5242482;28;20037;-77
2024/03/28 06:18:41;;;;;;;2.60;1.85;;;;;;;9.93;73.18;98162.56;5243015;28;20056;-77
2024/03/28 06:21:13;;;;;;;3.30;1.90;;;;;;;9.96;72.03;98159.56;5245124;28;20032;-77
2024/03/28 06:23:44;;;;;;;3.08;1.63;;;;;;;9.93;71.81;98147.69;5244559;28;20037;-77
2024/03/28 06:26:16;;;;;;;2.25;1.65;;;;;;;10.03;71.30;98155.16;5242216;28;20039;-77
2024/03/28 06:28:48;;;;;;;6.80;2.17;;;;;;;10.03;70.95;98154.38;5241265;28;20494;-77
2024/03/28 06:31:22;;;;;;;5.35;1.70;;;;;;;10.03;72.02;98149.13;5243091;28;20045;-78
2024/03/28 06:33:56;;;;;;;3.15;1.83;;;;;;;10.17;71.48;98150.81;5243801;28;20549;-78
2024/03/28 06:36:28;;;;;;;3.15;1.73;;;;;;;10.08;70.97;98144.97;5248572;28;20040;-78
2024/03/28 06:39:00;;;;;;;4.03;1.98;;;;;;;10.14;70.44;98151.22;5246204;28;20032;-78
2024/03/28 06:41:32;;;;;;;4.40;2.05;;;;;;;10.11;70.45;98149.78;5248336;28;20033;-78
2024/03/28 06:44:04;;;;;;;2.80;1.67;;;;;;;10.17;70.68;98153.44;5247037;28;20041;-78
2024/03/28 06:46:36;;;;;;;2.90;1.80;;;;;;;10.10;69.68;98144.75;5245387;28;20130;-78
2024/03/28 06:49:07;;;;;;;3.30;2.03;;;;;;;10.18;70.05;98163.69;5248971;28;20029;-78
2024/03/28 06:51:39;;;;;;;3.97;2.17;;;;;;;10.22;72.20;98164.13;5229962;28;20033;-77
2024/03/28 06:54:11;;;;;;;2.72;1.90;;;;;;;10.19;71.04;98160.09;5249117;28;20838;-79
2024/03/28 06:56:43;;;;;;;5.00;1.88;;;;;;;10.23;71.58;98163.16;5248439;28;20513;-80
2024/03/28 06:59:15;;;;;;;3.35;1.95;;;;;;;10.26;71.99;98167.19;5229879;28;20034;-81
2024/03/28 07:01:47;;;;;;;2.47;1.77;;;;;;;10.30;71.07;98169.22;5254133;28;20087;-78
2024/03/28 07:04:19;;;;;;;4.47;1.80;;;;;;;10.32;70.22;98175.09;5256226;28;20029;-78
2024/03/28 07:06:51;;;;;;;3.20;2.00;;;;;;;10.34;71.85;98180.13;5254560;28;20028;-78
2024/03/28 07:09:23;;;;;;;2.83;1.77;;;;;;;10.36;72.35;98189.41;5252393;28;20041;-78
2024/03/28 07:11:55;;;;;;;3.30;1.80;;;;;;;10.40;72.31;98190.63;5257244;28;20116;-78
2024/03/28 07:14:27;;;;;;;2.83;1.80;;;;;;;10.38;72.01;98187.41;5255500;28;20107;-78
2024/03/28 07:16:59;;;;;;;4.72;1.90;;;;;;;10.40;73.72;98189.81;5256641;28;20124;-78
2024/03/28 07:19:31;;;;;;;3.25;1.83;;;;;;;10.38;75.18;98186.56;5257342;28;20111;-78
2024/03/28 07:22:03;;;;;;;3.15;1.60;;;;;;;10.41;77.73;98192.22;5256333;28;20047;-77
2024/03/28 07:24:35;;;;;;;3.60;1.58;;;;;;;10.37;79.92;98198.84;5255089;28;20048;-78
2024/03/28 07:27:07;;;;;;;5.13;1.60;;;;;;;10.38;82.52;98204.91;5257314;28;20033;-78
2024/03/28 07:29:39;;;;;;;2.20;1.65;;;;;;;10.31;84.58;98193.63;5255632;28;20298;-78
2024/03/28 07:32:11;;;;;;;2.50;1.45;;;;;;;10.26;84.79;98188.13;5253193;28;20241;-78
2024/03/28 07:34:43;;;;;;;2.65;1.63;;;;;;;10.19;88.55;98190.66;5255324;28;20059;-78
2024/03/28 07:37:15;;;;;;;3.17;1.77;;;;;;;10.20;91.27;98198.34;5255970;28;20029;-78
2024/03/28 07:39:47;;;;;;;2.80;1.50;;;;;;;10.16;92.11;98201.53;5255157;28;20056;-78
2024/03/28 07:42:19;;;;;;;2.47;1.20;;;;;;;10.14;93.66;98201.72;5253595;28;20039;-78
2024/03/28 07:44:51;;;;;;;2.70;1.40;;;;;;;10.17;99.27;98205.78;5253021;28;20141;-78
2024/03/28 07:47:23;;;;;;;2.40;1.60;;;;;;;10.12;100.00;98202.94;5252227;28;20352;-78
2024/03/28 07:49:55;;;;;;;2.05;1.30;;;;;;;10.13;100.00;98202.72;5247255;28;20029;-78
2024/03/28 07:52:28;;;;;;;2.97;1.48;;;;;;;10.17;100.00;98201.34;5253763;28;20136;-78
2024/03/28 07:55:00;;;;;;;2.78;1.30;;;;;;;10.15;100.00;98202.53;5253656;28;20040;-78
2024/03/28 07:57:32;;;;;;;3.20;1.33;;;;;;;10.10;100.00;98199.69;5253196;28;20071;-78
2024/03/28 08:00:06;;;;;;;1.73;0.93;;;;;;;10.12;100.00;98200.31;5250869;28;20090;-78
2024/03/28 08:02:38;;;;;;;2.03;1.25;;;;;;;10.08;100.00;98209.56;5253043;28;20033;-78
2024/03/28 08:05:12;;;;;;;2.10;1.17;;;;;;;10.08;100.00;98201.69;5253279;28;20020;-78
2024/03/28 08:07:44;;;;;;;1.20;0.70;;;;;;;9.99;100.00;98206.25;5252448;28;20035;-78
2024/03/28 08:10:16;;;;;;;1.67;0.82;;;;;;;10.06;100.00;98209.72;5250267;28;20021;-78
2024/03/28 08:12:48;;;;;;;1.73;0.90;;;;;;;10.07;100.00;98221.00;5250751;28;20047;-78
2024/03/28 08:15:20;;;;;;;2.20;0.85;;;;;;;10.06;100.00;98216.75;5248165;28;20037;-78
2024/03/28 08:17:53;;;;;;;2.20;1.08;;;;;;;10.07;100.00;98219.19;5247879;28;20568;-77
2024/03/28 08:20:25;;;;;;;3.25;1.27;;;;;;;10.04;100.00;98221.38;5253337;28;20048;-78
2024/03/28 08:22:57;;;;;;;2.92;1.00;;;;;;;10.01;100.00;98211.31;5248792;28;20025;-78
2024/03/28 08:25:29;;;;;;;1.60;1.08;;;;;;;9.96;100.00;98220.53;5249555;28;20669;-78
2024/03/28 08:28:01;;;;;;;2.00;1.00;;;;;;;9.96;100.00;98225.78;5248843;28;20074;-77
2024/03/28 08:30:33;;;;;;;1.40;0.90;;;;;;;10.03;100.00;98219.75;5247163;28;20803;-78
2024/03/28 08:33:05;;;;;;;1.92;0.90;;;;;;;10.11;100.00;98217.00;5247529;28;20043;-77
2024/03/28 08:35:42;;;;;;;1.58;0.80;;;;;;;10.17;100.00;98216.22;5245659;28;20036;-77
2024/03/28 08:38:14;;;;;;;2.28;1.00;;;;;;;10.10;100.00;98218.81;5245840;28;20029;-78
2024/03/28 08:40:45;;;;;;;3.00;1.05;;;;;;;10.10;100.00;98218.81;5246060;28;20035;-78
2024/03/28 08:43:18;;;;;;;1.75;1.20;;;;;;;10.11;100.00;98227.44;5247248;28;20033;-78
2024/03/28 08:45:50;;;;;;;2.42;1.00;;;;;;;10.17;100.00;98224.09;5243993;28;20033;-78
2024/03/28 08:48:23;;;;;;;2.50;0.95;;;;;;;10.15;100.00;98228.69;5238960;28;20392;-78
2024/03/28 08:50:58;;;;;;;3.75;1.20;;;;;;;10.13;100.00;98241.16;5243726;28;20033;-78
2024/03/28 08:53:30;;;;;;;2.03;1.08;;;;;;;10.14;100.00;98242.78;5248849;28;20458;-78
2024/03/28 08:56:03;;;;;;;2.20;0.90;;;;;;;10.18;100.00;98252.66;5251980;28;20479;-78
2024/03/28 08:58:35;;;;;;;2.22;1.10;;;;;;;10.16;100.00;98240.78;5252334;28;20043;-78
2024/03/28 09:01:07;;;;;;;2.70;1.17;;;;;;;10.21;100.00;98246.25;5251574;28;21851;-78
2024/03/28 09:03:39;;;;;;;1.55;1.00;;;;;;;10.21;100.00;98257.53;5250748;28;20040;-78
2024/03/28 09:06:11;;;;;;;1.70;1.00;;;;;;;10.23;100.00;98252.91;5250238;28;20035;-78
2024/03/28 09:08:43;;;;;;;4.15;1.17;;;;;;;10.28;100.00;98260.22;5249878;28;20029;-78
2024/03/28 09:11:15;;;;;;;1.80;1.00;;;;;;;10.30;100.00;98267.88;5245722;28;20021;-78
2024/03/28 09:13:47;;;;;;;1.77;1.02;;;;;;;10.39;100.00;98272.78;5250157;28;20043;-78
2024/03/28 09:16:19;;;;;;;2.05;0.90;;;;;;;10.39;100.00;98274.59;5251146;28;20017;-78
2024/03/28 09:18:51;;;;;;;2.75;1.08;;;;;;;10.37;100.00;98276.56;5245945;28;20144;-78
2024/03/28 09:21:23;;;;;;;2.65;1.10;;;;;;;10.37;100.00;98269.53;5250711;28;20036;-78
2024/03/28 09:23:55;;;;;;;1.30;0.88;;;;;;;10.43;100.00;98288.91;5248769;28;20156;-78
2024/03/28 09:26:28;;;;;;;1.40;0.90;;;;;;;10.36;100.00;98281.00;5251448;28;20858;-78
2024/03/28 09:29:00;;;;;;;1.42;0.70;;;;;;;10.50;100.00;98304.66;5249415;28;20052;-78
2024/03/28 09:31:32;;;;;;;2.28;0.95;;;;;;;10.47;100.00;98298.78;5250041;28;20025;-78
2024/03/28 09:34:04;;;;;;;1.63;0.90;;;;;;;10.39;100.00;98298.94;5249462;28;20037;-77
2024/03/28 09:36:36;;;;;;;1.73;0.90;;;;;;;10.44;100.00;98316.69;5248861;28;20063;-78
2024/03/28 09:39:11;;;;;;;1.50;0.82;;;;;;;10.50;100.00;98336.06;5244693;28;20033;-78
2024/03/28 09:41:46;;;;;;;1.70;1.00;;;;;;;10.49;100.00;98330.00;5227676;28;20052;-77
2024/03/28 09:44:20;;;;;;;2.20;0.95;;;;;;;10.42;100.00;98358.78;5245825;28;20395;-78
2024/03/28 09:46:53;;;;;;;1.65;0.63;;;;;;;10.26;100.00;98334.66;5241637;28;20032;-77
2024/03/28 09:49:26;;;;;;;1.83;0.68;;;;;;;10.27;100.00;98342.34;5245389;28;20036;-77
2024/03/28 09:52:00;;;;;;;1.80;0.75;;;;;;;10.22;100.00;98347.28;5245770;28;20505;-77
2024/03/28 09:54:35;;;;;;;1.83;0.70;;;;;;;10.35;100.00;98360.53;5244535;28;20087;-77
2024/03/28 09:57:08;;;;;;;1.40;0.85;;;;;;;10.18;100.00;98369.59;5243491;28;20502;-77
2024/03/28 09:59:39;;;;;;;1.33;0.80;;;;;;;10.20;100.00;98383.31;5239524;28;20490;-77
2024/03/28 10:02:17;;;;;;;1.30;0.50;;;;;;;10.24;100.00;98389.78;5243773;28;20275;-77
2024/03/28 10:04:55;;;;;;;3.53;0.60;;;;;;;10.34;100.00;98389.47;5243314;28;20398;-77
2024/03/28 10:07:27;;;;;;;1.98;0.52;;;;;;;10.22;100.00;98395.19;5243043;28;20037;-77
2024/03/28 10:09:59;;;;;;;2.28;0.57;;;;;;;10.23;100.00;98398.66;5242433;28;20037;-77
2024/03/28 10:12:31;;;;;;;1.88;0.60;;;;;;;10.22;100.00;98400.41;5245474;28;20070;-77
2024/03/28 10:15:04;;;;;;;1.73;0.40;;;;;;;10.32;100.00;98415.84;5238363;28;20025;-78
2024/03/28 10:17:35;;;;;;;2.95;0.75;;;;;;;10.41;100.00;98409.47;5245150;28;21224;-78
2024/03/28 10:20:10;;;;;;;2.97;0.80;;;;;;;10.48;100.00;98423.44;5244463;28;20104;-77
2024/03/28 10:22:44;;;;;;;2.17;0.70;;;;;;;10.53;100.00;98435.16;5246039;28;20039;-78
2024/03/28 10:25:19;;;;;;;2.15;0.90;;;;;;;10.53;100.00;98437.75;5244774;28;20028;-78
2024/03/28 10:28:00;;;;;;;2.40;1.05;;;;;;;10.85;100.00;98439.03;5243836;28;20028;-78
2024/03/28 10:30:32;;;;;;;1.88;1.10;;;;;;;10.79;100.00;98431.94;5244730;28;20033;-78
2024/03/28 10:33:04;;;;;;;2.53;1.20;;;;;;;10.92;100.00;98435.47;5246037;28;20037;-78
2024/03/28 10:35:42;;;;;;;2.90;1.25;;;;;;;11.11;100.00;98443.66;5246924;28;20036;-78
2024/03/28 10:38:14;;;;;;;3.35;1.60;;;;;;;11.20;100.00;98448.53;5244530;28;20055;-77
2024/03/28 10:40:48;;;;;;;3.75;1.63;;;;;;;11.38;100.00;98444.59;5246052;28;20036;-78
2024/03/28 10:43:24;;;;;;;3.00;1.50;;;;;;;11.63;100.00;98439.66;5245217;28;20033;-78
2024/03/28 10:46:02;;;;;;;2.75;1.50;;;;;;;12.05;100.00;98446.50;5226920;28;20033;-77
2024/03/28 10:48:35;;;;;;;3.42;1.63;;;;;;;12.19;100.00;98460.44;5241995;28;20770;-78
2024/03/28 10:51:43;;;;;;;4.22;1.42;;;;;;;12.95;100.00;98477.69;5242237;28;20048;-78
2024/03/28 10:54:24;;;;;;;4.65;1.60;;;;;;;12.71;100.00;98468.59;5184061;28;20041;-77
2024/03/28 10:56:56;;;;;;;4.85;1.65;;;;;;;12.80;100.00;98476.06;5250765;28;20417;-79
2024/03/28 10:59:30;;;;;;;2.90;1.50;;;;;;;13.08;100.00;98489.00;5248870;28;20036;-78
2024/03/28 11:02:05;;;;;;;4.28;1.50;;;;;;;13.26;100.00;98479.69;5249049;28;20045;-78
2024/03/28 11:04:37;;;;;;;3.40;1.20;;;;;;;13.35;100.00;98484.53;5250008;28;20083;-79
2024/03/28 11:07:11;;;;;;;2.72;1.10;;;;;;;13.47;100.00;98491.78;5245806;28;20497;-79
2024/03/28 11:09:43;;;;;;;3.75;0.75;;;;;;;13.31;97.05;98501.75;5248322;28;20037;-79
2024/03/28 11:12:15;;;;;;;2.47;0.90;;;;;;;13.44;93.63;98498.28;5250524;28;20032;-79
2024/03/28 11:15:00;;;;;;;3.40;0.90;;;;;;;13.97;94.19;98497.28;5251290;28;20036;-79
2024/03/28 11:17:39;;;;;;;3.83;0.88;;;;;;;13.81;86.13;98504.63;5249845;28;20306;-79
2024/03/28 11:20:20;;;;;;;2.38;0.70;;;;;;;13.80;81.00;98510.94;5247840;28;20059;-79
2024/03/28 11:22:52;;;;;;;4.47;1.05;;;;;;;13.82;82.44;98515.97;5250428;28;20037;-79
2024/03/28 11:25:32;;;;;;;2.55;0.98;;;;;;;14.10;77.42;98507.78;5250833;28;20025;-79
2024/03/28 11:28:06;;;;;;;2.80;0.82;;;;;;;14.04;76.24;98519.13;5250121;28;20037;-79
2024/03/28 11:30:40;;;;;;;3.10;0.88;;;;;;;14.06;65.83;98522.38;5253044;28;20025;-79
2024/03/28 11:33:13;;;;;;;2.80;1.10;;;;;;;14.18;67.27;98518.06;5252037;28;20028;-79
2024/03/28 11:35:45;;;;;;;3.17;0.70;;;;;;;14.28;63.47;98512.31;5244969;28;20028;-80
2024/03/28 11:38:16;;;;;;;1.50;0.70;;;;;;;14.27;57.72;98519.41;5252329;28;20033;-79
2024/03/28 11:40:49;;;;;;;2.67;1.00;;;;;;;14.44;60.88;98516.31;5251229;28;20083;-80
2024/03/28 11:43:22;;;;;;;1.38;0.70;;;;;;;14.68;61.84;98525.28;5250707;28;20048;-80
2024/03/28 11:45:59;;;;;;;2.30;0.77;;;;;;;14.66;59.17;98525.53;5253229;28;20020;-80
2024/03/28 11:48:35;;;;;;;1.55;0.63;;;;;;;14.80;56.43;98523.56;5253785;28;20107;-80
2024/03/28 11:51:08;;;;;;;1.83;0.80;;;;;;;14.71;57.60;98530.94;5238607;28;20041;-80
2024/03/28 11:53:40;;;;;;;4.23;0.80;;;;;;;14.76;59.11;98523.19;5257395;28;20549;-80
2024/03/28 11:56:18;;;;;;;2.28;0.73;;;;;;;14.98;58.77;98522.84;5264285;28;20059;-80
2024/03/28 11:58:50;;;;;;;2.00;0.65;;;;;;;15.13;56.55;98530.44;5256257;28;20028;-81
2024/03/28 12:01:22;;;;;;;2.45;0.70;;;;;;;15.21;52.80;98530.94;5256506;28;20100;-80
2024/03/28 12:03:54;;;;;;;1.73;0.73;;;;;;;15.44;53.48;98534.81;5255498;28;20055;-79
2024/03/28 12:06:26;;;;;;;2.25;0.75;;;;;;;15.33;51.73;98538.97;5257396;28;20155;-79
2024/03/28 12:08:58;;;;;;;1.08;0.40;;;;;;;15.37;54.18;98544.63;5253363;28;20036;-79